KMEM/MEM METAR and TAF weather

Enter ICAO airport designator
Station Type Date Time Source
KMEM METAR 2019/12/10 05:54 UTC NOAA

KMEM 100554Z 32010KT 10SM FEW025 OVC085 12/08 A2997 RMK AO2 RAB05E45 SLP147 P0000 60000 T01170083 10189 20117 401940117 53033


Station Type Date Time Source
KMEM Decoded METAR 2019/12/10 05:54 UTC NOAA

MEMPHIS INTERNATIONAL AIRPORT , TN, United States (KMEM) 35-02N 089-59W 86M
Dec 10, 2019 - 12:54 AM EST / 2019.12.10 0554 UTC
Wind: from the NW (320 degrees) at 12 MPH (10 KT):0
Visibility: 10 mile(s):0
Sky conditions: overcast
Precipitation last hour: A trace
Temperature: 53.1 F (11.7 C)
Dew Point: 46.9 F (8.3 C)
Relative Humidity: 79%
Pressure (altimeter): 29.97 in. Hg (1014 hPa)
Pressure tendency: 0.10 inches (3.3 hPa) higher than three hours ago
ob: KMEM 100554Z 32010KT 10SM FEW025 OVC085 12/08 A2997 RMK AO2 RAB05E45 SLP147 P0000 60000 T01170083 10189 20117 401940117 53033
cycle: 6

Station Type Date Time Source
KMEM TAF 2019/12/10 06:34 UTC NOAA

TAF KMEM 100531Z 1006/1112 33011G20KT P6SM VCSH OVC080
FM100800 34013KT 5SM -SHRA BR SCT020 OVC040
FM101400 01009KT 6SM -RAPLSN OVC025
FM101700 01008KT 6SM -SN BR SCT009 OVC020
FM102300 03005KT P6SM SCT035 OVC050

Example: see airport list